createdAt,value
2022-09-06T04:30:53.780Z,80.95
2022-09-06T04:31:53.877Z,80.91
2022-09-06T04:32:53.747Z,80.21
2022-09-06T04:33:53.738Z,80.31
2022-09-06T04:34:53.731Z,80.21
2022-09-06T04:35:53.689Z,80.01
2022-09-06T04:36:53.689Z,79.61
2022-09-06T04:37:53.696Z,79.91
2022-09-06T04:38:53.678Z,80.01
2022-09-06T04:39:53.726Z,80.11
2022-09-06T04:40:53.694Z,80.01
2022-09-06T04:41:53.667Z,80.11
2022-09-06T04:42:53.643Z,80.01
2022-09-06T04:43:53.635Z,79.41
2022-09-06T04:44:53.607Z,80.11
2022-09-06T04:45:53.705Z,79.85
2022-09-06T04:46:55.582Z,80.25
2022-09-06T04:47:53.570Z,80.35
2022-09-06T04:48:53.561Z,80.65
2022-09-06T04:49:53.617Z,80.45
2022-09-06T04:50:53.566Z,80.85
2022-09-06T04:51:53.552Z,81.05
2022-09-06T04:52:53.517Z,80.95
2022-09-06T04:53:53.566Z,80.55
2022-09-06T04:54:53.511Z,81.05
2022-09-06T04:55:53.528Z,81.05
2022-09-06T04:56:53.482Z,81.19
2022-09-06T04:57:53.482Z,80.95
2022-09-06T04:58:53.489Z,81.15
2022-09-06T04:59:53.434Z,81.46
2022-09-06T05:00:53.505Z,81.05
2022-09-06T05:01:53.489Z,81.56
2022-09-06T05:02:53.514Z,81.56
2022-09-06T05:03:56.744Z,81.59
2022-09-06T05:04:53.404Z,81.90
2022-09-06T05:05:53.397Z,81.59
2022-09-06T05:06:53.361Z,81.99
2022-09-06T05:07:53.367Z,81.99
2022-09-06T05:08:53.353Z,81.59
2022-09-06T05:09:53.326Z,81.59
2022-09-06T05:10:53.359Z,82.80
2022-09-06T05:11:53.308Z,82.70
2022-09-06T05:12:53.293Z,82.20
2022-09-06T05:13:53.281Z,82.20
2022-09-06T05:14:53.293Z,82.50
2022-09-06T05:15:53.335Z,82.10
2022-09-06T05:16:53.489Z,81.99
2022-09-06T05:17:53.245Z,82.50
2022-09-06T05:18:53.264Z,83.00
2022-09-06T05:19:53.317Z,81.90
2022-09-06T05:20:53.284Z,82.40
2022-09-06T05:21:53.254Z,82.30
2022-09-06T05:22:53.232Z,81.79
2022-09-06T05:23:57.900Z,82.10
2022-09-06T05:24:54.195Z,82.10
2022-09-06T05:25:53.153Z,81.96
2022-09-06T05:26:53.157Z,81.79
2022-09-06T05:27:53.218Z,81.76
2022-09-06T05:28:53.247Z,82.06
2022-09-06T05:29:53.106Z,81.65
2022-09-06T05:30:53.096Z,81.85
2022-09-06T05:31:53.216Z,81.65
2022-09-06T05:32:53.096Z,81.76
2022-09-06T05:33:53.155Z,81.65
2022-09-06T05:34:53.069Z,81.85
2022-09-06T05:35:53.111Z,81.35
2022-09-06T05:36:53.064Z,81.56
2022-09-06T05:37:53.088Z,81.82
2022-09-06T05:38:53.037Z,81.96
2022-09-06T05:39:53.075Z,81.76
2022-09-06T05:40:53.000Z,82.06
2022-09-06T05:41:52.988Z,81.85
2022-09-06T05:42:52.972Z,81.85
2022-09-06T05:43:52.970Z,81.46
2022-09-06T05:44:52.981Z,81.26
2022-09-06T05:45:53.074Z,81.01
2022-09-06T05:46:52.937Z,81.32
2022-09-06T05:47:52.905Z,80.91
2022-09-06T05:48:52.899Z,81.65
2022-09-06T05:49:52.900Z,81.96
2022-09-06T05:50:52.905Z,81.56
2022-09-06T05:51:52.890Z,81.82
2022-09-06T05:52:52.852Z,82.02
2022-09-06T05:53:52.846Z,81.82
2022-09-06T05:54:52.856Z,81.72
2022-09-06T05:55:52.824Z,82.02
2022-09-06T05:56:52.867Z,81.92
2022-09-06T05:57:52.803Z,81.92
2022-09-06T05:58:52.795Z,81.72
2022-09-06T05:59:52.785Z,81.88
2022-09-06T06:00:52.887Z,82.58
2022-09-06T06:01:52.823Z,81.88
2022-09-06T06:02:52.749Z,81.78
2022-09-06T06:03:52.797Z,81.48
2022-09-06T06:04:52.817Z,81.68
2022-09-06T06:05:52.769Z,81.78
2022-09-06T06:06:52.699Z,81.27
2022-09-06T06:07:52.764Z,80.83
2022-09-06T06:08:52.712Z,80.98
2022-09-06T06:09:52.680Z,80.83
2022-09-06T06:10:52.772Z,81.24
2022-09-06T06:11:52.660Z,80.94
2022-09-06T06:12:52.636Z,80.94
2022-09-06T06:13:52.629Z,80.43
2022-09-06T06:14:52.708Z,80.60
2022-09-06T06:15:52.620Z,79.69
2022-09-06T06:16:52.684Z,80.19
2022-09-06T06:17:52.658Z,79.80
2022-09-06T06:18:52.967Z,79.96
2022-09-06T06:19:52.621Z,79.55
2022-09-06T06:20:52.585Z,79.75
2022-09-06T06:21:52.614Z,79.55
2022-09-06T06:22:52.727Z,79.46
2022-09-06T06:23:52.606Z,80.26
2022-09-06T06:24:52.635Z,79.55
2022-09-06T06:25:52.549Z,79.82
2022-09-06T06:26:52.475Z,79.62
2022-09-06T06:27:52.504Z,79.28
2022-09-06T06:28:52.460Z,79.12
2022-09-06T06:29:52.549Z,79.78
2022-09-06T06:30:52.720Z,79.28
2022-09-06T06:31:52.568Z,79.14
2022-09-06T06:32:52.419Z,78.44
2022-09-06T06:33:52.419Z,78.54
2022-09-06T06:34:52.450Z,78.50
2022-09-06T06:35:52.458Z,78.00
2022-09-06T06:36:52.668Z,77.20
2022-09-06T06:37:52.412Z,77.36
2022-09-06T06:38:52.379Z,76.87
2022-09-06T06:39:52.426Z,77.86
2022-09-06T06:40:56.507Z,77.33
2022-09-06T06:41:52.342Z,76.83
2022-09-06T06:42:52.312Z,75.93
2022-09-06T06:43:52.306Z,75.59
2022-09-06T06:44:52.314Z,75.59
2022-09-06T06:45:52.339Z,75.05
2022-09-06T06:46:52.314Z,74.36
2022-09-06T06:47:52.284Z,74.26
2022-09-06T06:48:54.904Z,74.02
2022-09-06T06:49:52.245Z,73.42
2022-09-06T06:50:52.234Z,73.32
2022-09-06T06:51:52.240Z,73.42
2022-09-06T06:52:52.226Z,73.28
2022-09-06T06:53:52.201Z,72.69
2022-09-06T06:54:52.189Z,72.59
2022-09-06T06:55:52.188Z,72.65
2022-09-06T06:56:52.193Z,72.16
2022-09-06T06:57:52.152Z,71.52
2022-09-06T06:58:52.161Z,71.22
2022-09-06T06:59:52.134Z,70.72
2022-09-06T07:00:52.265Z,71.42
2022-09-06T07:01:52.216Z,71.62
2022-09-06T07:02:52.094Z,71.62
2022-09-06T07:03:52.086Z,70.92
2022-09-06T07:04:52.084Z,70.99
2022-09-06T07:07:53.057Z,70.16
2022-09-06T07:08:52.033Z,69.96
2022-09-06T07:10:53.015Z,69.82
2022-09-06T07:11:52.003Z,69.53
2022-09-06T07:12:51.997Z,68.79
2022-09-06T07:13:51.994Z,68.30
2022-09-06T07:14:51.995Z,68.96
2022-09-06T07:15:52.093Z,67.67
2022-09-06T07:16:51.964Z,67.37
2022-09-06T07:17:51.936Z,67.37
2022-09-06T07:18:51.916Z,67.27
2022-09-06T07:21:52.882Z,67.37
2022-09-06T07:22:51.897Z,67.37
2022-09-06T07:24:08.251Z,67.24
2022-09-06T07:24:52.862Z,65.64
2022-09-06T07:25:51.857Z,66.01
2022-09-06T07:27:52.920Z,65.61
2022-09-06T07:28:51.803Z,65.58
2022-09-06T07:29:51.810Z,64.89
2022-09-06T07:30:51.792Z,65.78
2022-09-06T07:32:52.794Z,65.55
2022-09-06T07:33:55.167Z,64.95
2022-09-06T07:34:51.754Z,64.76
2022-09-06T07:35:51.740Z,65.06
2022-09-06T07:36:51.761Z,64.56
2022-09-06T07:37:51.743Z,63.96
2022-09-06T07:38:51.730Z,64.66
2022-09-06T07:39:51.817Z,65.06
2022-09-06T07:40:51.708Z,64.06
2022-09-06T07:41:51.684Z,63.37
2022-09-06T07:42:51.657Z,63.46
2022-09-06T07:43:51.655Z,63.79
2022-09-06T07:44:51.649Z,64.56
2022-09-06T07:45:51.629Z,63.76
2022-09-06T07:46:51.780Z,63.70
2022-09-06T07:47:59.086Z,64.00
2022-09-06T07:48:52.598Z,64.29
2022-09-06T07:50:54.762Z,63.37
2022-09-06T07:51:51.575Z,63.67
2022-09-06T07:53:07.170Z,63.17
2022-09-06T07:54:06.909Z,63.27
2022-09-06T07:54:52.590Z,63.43
2022-09-06T07:55:51.534Z,63.24
2022-09-06T07:56:51.551Z,63.04
2022-09-06T07:57:51.543Z,62.64
2022-09-06T07:58:51.494Z,63.10
2022-09-06T07:59:51.514Z,62.02
2022-09-06T08:00:51.528Z,62.18
2022-09-06T08:01:51.585Z,62.68
2022-09-06T08:02:51.474Z,62.48
2022-09-06T08:03:51.487Z,62.58
2022-09-06T08:04:51.795Z,61.36
2022-09-06T08:08:59.843Z,60.50
2022-09-06T08:09:52.367Z,61.10
2022-09-06T08:10:51.392Z,60.96
2022-09-06T08:11:51.351Z,61.02
2022-09-06T08:12:51.365Z,61.89
2022-09-06T08:13:51.332Z,62.08
2022-09-06T08:14:51.355Z,61.76
2022-09-06T08:15:51.338Z,60.60
2022-09-06T08:16:51.365Z,61.56
2022-09-06T08:17:51.283Z,60.96
2022-09-06T08:18:51.289Z,60.74
2022-09-06T08:19:51.281Z,60.94
2022-09-06T08:20:51.274Z,60.61
2022-09-06T08:21:51.263Z,60.21
2022-09-06T08:22:51.229Z,60.11
2022-09-06T08:23:51.286Z,60.91
2022-09-06T08:24:51.227Z,59.72
2022-09-06T08:25:51.214Z,59.99
2022-09-06T08:26:51.354Z,59.30
2022-09-06T08:27:51.226Z,60.68
2022-09-06T08:28:51.281Z,59.66
2022-09-06T08:29:51.180Z,58.97
2022-09-06T08:30:51.141Z,58.57
2022-09-06T08:31:51.274Z,58.67
2022-09-06T08:32:51.116Z,58.87
2022-09-06T08:33:51.150Z,58.77
2022-09-06T08:34:51.221Z,59.17
2022-09-06T08:35:51.173Z,58.67
2022-09-06T08:36:51.085Z,58.18
2022-09-06T08:37:51.064Z,59.36
2022-09-06T08:38:51.132Z,59.73
2022-09-06T08:39:51.111Z,58.94
2022-09-06T08:40:51.095Z,57.33
2022-09-06T08:41:51.112Z,57.43
2022-09-06T08:42:51.011Z,57.03
2022-09-06T08:43:51.113Z,57.53
2022-09-06T08:45:52.580Z,57.43
2022-09-06T08:46:51.088Z,56.86
2022-09-06T08:47:50.989Z,57.65
2022-09-06T08:48:51.262Z,58.05
2022-09-06T08:49:50.989Z,58.25
2022-09-06T08:50:50.960Z,58.45
2022-09-06T08:51:50.922Z,58.05
2022-09-06T08:53:16.905Z,57.56
2022-09-06T08:53:51.949Z,58.51
2022-09-06T08:54:50.891Z,58.49
2022-09-06T08:55:50.905Z,57.79
2022-09-06T08:56:50.861Z,57.97
2022-09-06T08:57:50.938Z,56.46
2022-09-06T08:58:50.865Z,55.87
2022-09-06T08:59:50.843Z,56.06
2022-09-06T09:00:50.925Z,55.20
2022-09-06T09:01:50.946Z,56.38
2022-09-06T09:02:50.800Z,55.49
2022-09-06T09:03:50.789Z,56.09
2022-09-06T09:04:50.800Z,56.06
2022-09-06T09:05:50.817Z,55.87
2022-09-06T09:06:50.778Z,55.27
2022-09-06T09:07:50.750Z,54.78
2022-09-06T09:08:50.739Z,54.88
2022-09-06T09:09:50.759Z,55.66
2022-09-06T09:10:50.813Z,55.66
2022-09-06T09:11:50.698Z,55.77
2022-09-06T09:12:50.693Z,55.07
2022-09-06T09:13:50.673Z,55.15
2022-09-06T09:14:50.702Z,55.77
2022-09-06T09:15:50.834Z,55.74
2022-09-06T09:16:50.647Z,55.54
2022-09-06T09:17:50.829Z,55.35
2022-09-06T09:18:50.722Z,56.10
2022-09-06T09:19:50.714Z,55.12
2022-09-06T09:20:50.609Z,55.62
2022-09-06T09:21:50.691Z,54.80
2022-09-06T09:22:50.657Z,55.29
2022-09-06T09:23:50.585Z,54.21
2022-09-06T09:24:50.630Z,54.60
2022-09-06T09:25:50.547Z,54.30
2022-09-06T09:26:50.547Z,54.50
2022-09-06T09:27:50.553Z,53.71
2022-09-06T09:28:50.570Z,53.71
2022-09-06T09:30:51.547Z,53.74
2022-09-06T09:31:53.358Z,55.24
2022-09-06T09:32:50.574Z,56.13
2022-09-06T09:33:50.464Z,55.22
2022-09-06T09:34:50.462Z,55.39
2022-09-06T09:35:50.762Z,54.01
2022-09-06T09:37:55.411Z,53.39
2022-09-06T09:38:50.461Z,53.32
2022-09-06T09:39:50.424Z,53.59
2022-09-06T09:40:50.467Z,53.49
2022-09-06T09:41:50.457Z,53.88
2022-09-06T09:42:50.380Z,53.91
2022-09-06T09:43:50.404Z,53.71
2022-09-06T09:44:50.401Z,53.71
2022-09-06T09:45:50.393Z,54.21
2022-09-06T09:46:50.391Z,54.01
2022-09-06T09:47:50.330Z,53.91
2022-09-06T09:48:50.452Z,54.08
2022-09-06T09:49:50.325Z,53.88
2022-09-06T09:50:50.329Z,53.86
2022-09-06T09:51:50.302Z,53.76
2022-09-06T09:52:50.256Z,53.56
2022-09-06T09:53:50.262Z,53.64
2022-09-06T09:54:50.268Z,53.54
2022-09-06T09:55:50.262Z,52.55
2022-09-06T09:56:50.230Z,52.92
2022-09-06T09:57:50.201Z,52.33
2022-09-06T09:58:50.199Z,52.53
2022-09-06T09:59:50.255Z,52.03
2022-09-06T10:00:50.236Z,52.33
2022-09-06T10:01:50.203Z,52.53
2022-09-06T10:02:50.165Z,52.14
2022-09-06T10:04:51.134Z,53.68
2022-09-06T10:05:50.171Z,52.80
2022-09-06T10:07:51.099Z,53.22
2022-09-06T10:08:50.090Z,52.82
2022-09-06T10:09:50.086Z,51.93
2022-09-06T10:10:50.094Z,52.23
2022-09-06T10:11:50.058Z,52.40
2022-09-06T10:12:50.512Z,52.60
2022-09-06T10:13:50.030Z,52.11
2022-09-06T10:14:50.031Z,51.52
2022-09-06T10:15:50.114Z,52.60
2022-09-06T10:16:50.026Z,52.70
2022-09-06T10:17:50.114Z,52.77
2022-09-06T10:18:49.991Z,52.06
2022-09-06T10:19:50.009Z,51.67
2022-09-06T10:20:49.965Z,51.57
2022-09-06T10:21:49.970Z,51.98
2022-09-06T10:22:49.940Z,52.21
2022-09-06T10:24:50.942Z,52.11
2022-09-06T10:25:50.119Z,51.81
2022-09-06T10:26:49.893Z,52.11
2022-09-06T10:28:01.715Z,52.11
2022-09-06T10:28:50.891Z,52.18
2022-09-06T10:29:49.880Z,52.75
2022-09-06T10:30:49.852Z,51.57
2022-09-06T10:31:49.996Z,50.56
2022-09-06T10:32:49.904Z,50.85
2022-09-06T10:33:49.841Z,50.56
2022-09-06T10:34:49.823Z,51.05
2022-09-06T10:35:49.827Z,50.46
2022-09-06T10:36:49.817Z,50.95
2022-09-06T10:37:49.782Z,51.15
2022-09-06T10:38:49.788Z,51.05
2022-09-06T10:39:49.877Z,51.52
2022-09-06T10:40:49.764Z,50.24
2022-09-06T10:41:49.731Z,50.44
2022-09-06T10:42:49.737Z,50.37
2022-09-06T10:43:49.708Z,49.95
2022-09-06T10:44:49.750Z,50.27
2022-09-06T10:45:49.706Z,50.14
2022-09-06T10:46:49.759Z,50.04
2022-09-06T10:47:49.701Z,49.36
2022-09-06T10:48:49.671Z,49.85
2022-09-06T10:49:49.686Z,49.26
2022-09-06T10:50:49.632Z,49.95
2022-09-06T10:51:49.649Z,50.34
2022-09-06T10:52:49.614Z,50.37
2022-09-06T10:53:49.603Z,50.16
2022-09-06T10:54:49.624Z,50.46
2022-09-06T10:55:49.587Z,50.04
2022-09-06T10:56:49.579Z,50.54
2022-09-06T10:59:52.039Z,50.09
2022-09-06T11:00:49.544Z,50.37
2022-09-06T11:01:49.658Z,48.90
2022-09-06T11:03:53.769Z,48.72
2022-09-06T11:05:50.508Z,48.63
2022-09-06T11:06:49.532Z,48.43
2022-09-06T11:08:53.300Z,49.31
2022-09-06T11:09:49.454Z,48.33
2022-09-06T11:10:49.474Z,48.55
2022-09-06T11:11:49.421Z,49.11
2022-09-06T11:12:49.454Z,48.82
2022-09-06T11:13:49.472Z,48.45
2022-09-06T11:14:49.449Z,48.74
2022-09-06T11:15:49.510Z,49.82
2022-09-06T11:16:49.436Z,50.29
2022-09-06T11:17:49.373Z,48.92
2022-09-06T11:18:49.360Z,48.52
2022-09-06T11:19:49.347Z,48.85
2022-09-06T11:20:49.365Z,50.29
2022-09-06T11:21:49.328Z,48.72
2022-09-06T11:22:49.343Z,49.99
2022-09-06T11:23:49.305Z,49.09
2022-09-06T11:24:49.310Z,48.33
2022-09-06T11:25:49.280Z,48.70
2022-09-06T11:26:49.304Z,49.60
2022-09-06T11:27:49.252Z,49.11
2022-09-06T11:28:49.263Z,49.41
2022-09-06T11:29:49.292Z,48.63
2022-09-06T11:30:49.351Z,49.31
2022-09-06T11:32:50.202Z,49.02
2022-09-06T11:33:49.203Z,48.92
2022-09-06T11:34:49.183Z,47.64
2022-09-06T11:35:49.182Z,48.30
2022-09-06T11:36:49.170Z,48.01
2022-09-06T11:37:49.152Z,48.33
2022-09-06T11:38:49.143Z,48.99
2022-09-06T11:40:50.145Z,47.52
2022-09-06T11:41:49.109Z,48.99
2022-09-06T11:42:49.114Z,49.09
2022-09-06T11:43:49.103Z,47.60
2022-09-06T11:44:49.069Z,47.81
2022-09-06T11:45:49.053Z,48.41
2022-09-06T11:46:49.136Z,47.52
2022-09-06T11:47:49.037Z,48.41
2022-09-06T11:48:49.039Z,49.11
2022-09-06T11:49:49.028Z,49.41
2022-09-06T11:50:49.051Z,50.42
2022-09-06T11:51:49.038Z,50.04
2022-09-06T11:52:48.983Z,50.37
2022-09-06T11:53:49.036Z,50.09
2022-09-06T11:54:48.998Z,50.39
2022-09-06T11:55:48.996Z,50.51
2022-09-06T11:56:48.974Z,50.63
2022-09-06T11:57:48.951Z,50.83
2022-09-06T11:58:48.928Z,51.64
2022-09-06T11:59:48.928Z,51.05
2022-09-06T12:00:48.910Z,51.35
2022-09-06T12:01:48.973Z,51.84
2022-09-06T12:02:49.066Z,52.43
2022-09-06T12:04:05.614Z,52.03
2022-09-06T12:04:49.860Z,51.84
2022-09-06T12:05:48.903Z,52.43
2022-09-06T12:06:48.923Z,55.01
2022-09-06T12:07:48.822Z,56.00
2022-09-06T12:08:48.839Z,56.39
2022-09-06T12:09:48.814Z,56.42
2022-09-06T12:10:48.866Z,62.33
2022-09-06T12:11:48.816Z,64.42
2022-09-06T12:12:48.770Z,64.19
2022-09-06T12:13:48.771Z,67.58
2022-09-06T12:14:48.773Z,66.95
2022-09-06T12:15:48.817Z,67.61
2022-09-06T12:16:48.734Z,69.06
2022-09-06T12:17:48.722Z,70.28
2022-09-06T12:18:48.852Z,73.38
2022-09-06T12:19:48.710Z,73.82
2022-09-06T12:20:48.689Z,75.84
2022-09-06T12:21:48.699Z,77.82
2022-09-06T12:22:48.752Z,78.55
2022-09-06T12:23:48.655Z,77.83
2022-09-06T12:24:48.642Z,75.12
2022-09-06T12:25:48.657Z,71.18
2022-09-06T12:26:53.155Z,72.17
2022-09-06T12:27:49.652Z,75.49
2022-09-06T12:28:48.598Z,76.09
2022-09-06T12:29:48.631Z,75.10
2022-09-06T12:30:48.617Z,66.47
2022-09-06T12:31:48.610Z,73.11
2022-09-06T12:32:48.558Z,75.29
2022-09-06T12:33:48.566Z,78.67
2022-09-06T12:35:57.162Z,80.36
2022-09-06T12:36:49.528Z,80.63
2022-09-06T12:37:48.515Z,81.02
2022-09-06T12:38:48.501Z,81.58
2022-09-06T12:39:48.564Z,81.18
2022-09-06T12:40:48.508Z,84.56
2022-09-06T12:41:48.483Z,84.62
2022-09-06T12:42:48.459Z,82.93
2022-09-06T12:43:48.524Z,81.60
2022-09-06T12:44:48.444Z,80.87
2022-09-06T12:45:48.433Z,82.56
2022-09-06T12:46:48.534Z,84.60
2022-09-06T12:47:48.401Z,83.07
2022-09-06T12:48:48.384Z,82.02
2022-09-06T12:49:48.403Z,80.79
2022-09-06T12:50:48.422Z,78.97
2022-09-06T12:51:48.399Z,79.03
2022-09-06T12:52:48.413Z,75.99
2022-09-06T12:53:48.350Z,75.27
2022-09-06T12:54:48.355Z,78.63
2022-09-06T12:55:48.333Z,77.01
2022-09-06T12:56:48.324Z,75.23
2022-09-06T12:57:48.368Z,72.06
2022-09-06T12:58:48.280Z,71.20
2022-09-06T12:59:48.269Z,70.61
2022-09-06T13:00:48.293Z,70.35
2022-09-06T13:01:48.420Z,72.92
2022-09-06T13:02:48.393Z,71.24
2022-09-06T13:03:48.234Z,73.36
2022-09-06T13:04:48.219Z,71.97
2022-09-06T13:05:48.202Z,72.10
2022-09-06T13:06:48.255Z,73.89
2022-09-06T13:07:48.184Z,67.97
2022-09-06T13:08:48.180Z,67.74
2022-09-06T13:09:48.160Z,69.53
2022-09-06T13:10:48.187Z,68.66
2022-09-06T13:11:48.144Z,68.01
2022-09-06T13:12:48.167Z,68.43
2022-09-06T13:13:48.123Z,67.11
2022-09-06T13:14:48.121Z,63.94
2022-09-06T13:15:48.118Z,64.53
2022-09-06T13:16:48.122Z,66.22
2022-09-06T13:17:48.089Z,65.53
2022-09-06T13:18:48.082Z,65.30
2022-09-06T13:19:48.061Z,65.79
2022-09-06T13:20:48.050Z,65.69
2022-09-06T13:21:48.032Z,67.47
2022-09-06T13:22:48.079Z,67.74
2022-09-06T13:24:58.567Z,68.83
2022-09-06T13:25:58.519Z,66.72
2022-09-06T13:26:58.517Z,68.60
2022-09-06T13:27:58.533Z,66.13
2022-09-06T13:28:58.529Z,67.80
2022-09-06T13:29:58.517Z,66.32
2022-09-06T13:30:58.609Z,64.34
2022-09-06T13:31:58.494Z,62.66
2022-09-06T13:32:58.455Z,64.41
2022-09-06T13:33:58.456Z,63.71
2022-09-06T13:34:58.458Z,60.97
2022-09-06T13:35:58.464Z,59.39
2022-09-06T13:36:58.526Z,60.38
2022-09-06T13:37:58.392Z,60.19
2022-09-06T13:38:58.398Z,63.82
2022-09-06T13:39:58.475Z,62.82
2022-09-06T13:41:16.478Z,61.83
2022-09-06T13:41:59.359Z,60.35
2022-09-06T13:42:58.383Z,60.65
2022-09-06T13:43:58.372Z,62.04
2022-09-06T13:45:01.946Z,59.17
2022-09-06T13:45:58.350Z,63.02
2022-09-06T13:46:58.351Z,67.05
2022-09-06T13:48:13.207Z,68.13
2022-09-06T13:48:59.298Z,68.24
2022-09-06T13:49:58.299Z,67.14
2022-09-06T13:50:58.272Z,64.38
2022-09-06T13:51:58.256Z,60.52
2022-09-06T13:52:58.242Z,57.65
2022-09-06T13:53:58.221Z,59.53
2022-09-06T13:54:58.236Z,59.23
2022-09-06T13:55:58.250Z,59.80
2022-09-06T13:56:58.458Z,61.68
2022-09-06T13:57:58.201Z,61.05
2022-09-06T13:58:58.171Z,58.98
2022-09-06T13:59:58.167Z,57.50
2022-09-06T14:00:58.252Z,57.60
2022-09-06T14:01:58.180Z,56.09
2022-09-06T14:02:58.219Z,55.89
2022-09-06T14:03:58.109Z,59.34
2022-09-06T14:04:58.116Z,56.78
2022-09-06T14:05:58.107Z,57.97
2022-09-06T14:06:58.173Z,59.25
2022-09-06T14:07:58.079Z,59.67
2022-09-06T14:09:13.693Z,58.36
2022-09-06T14:09:59.067Z,58.56
2022-09-06T14:10:58.141Z,58.78
2022-09-06T14:11:58.078Z,60.17
2022-09-06T14:12:58.111Z,60.89
2022-09-06T14:13:58.011Z,60.30
2022-09-06T14:14:58.021Z,60.30
2022-09-06T14:15:58.032Z,60.69
2022-09-06T14:16:57.971Z,60.79
2022-09-06T14:17:57.989Z,61.58
2022-09-06T14:18:57.955Z,61.71
2022-09-06T14:19:57.942Z,61.91
2022-09-06T14:20:57.935Z,62.60
2022-09-06T14:21:57.940Z,62.79
2022-09-06T14:22:57.977Z,61.21
2022-09-06T14:24:00.909Z,61.41
2022-09-06T14:24:58.999Z,61.21
2022-09-06T14:25:57.884Z,62.40
2022-09-06T14:26:57.955Z,61.71
2022-09-06T14:27:57.859Z,62.10
2022-09-06T14:28:57.853Z,62.73
2022-09-06T14:29:57.844Z,62.43
2022-09-06T14:30:57.912Z,61.74
2022-09-06T14:31:57.843Z,61.44
2022-09-06T14:32:57.899Z,61.83
2022-09-06T14:33:57.797Z,63.02
2022-09-06T14:34:57.812Z,62.33
2022-09-06T14:35:57.768Z,62.23
2022-09-06T14:36:57.775Z,62.33
2022-09-06T14:37:57.768Z,63.02
2022-09-06T14:38:57.770Z,65.00
2022-09-06T14:39:57.818Z,64.21
2022-09-06T14:40:57.729Z,63.71
2022-09-06T14:41:57.742Z,64.21
2022-09-06T14:42:57.738Z,64.51
2022-09-06T14:43:57.685Z,63.59
2022-09-06T14:44:57.677Z,61.94
2022-09-06T14:45:57.685Z,61.15
2022-09-06T14:46:57.649Z,61.94
2022-09-06T14:47:57.649Z,62.53
2022-09-06T14:48:57.692Z,62.10
2022-09-06T14:49:57.646Z,62.79
2022-09-06T14:50:57.623Z,61.83
2022-09-06T14:51:57.614Z,61.44
2022-09-06T14:52:57.598Z,62.33
2022-09-06T14:53:57.574Z,62.70
2022-09-06T14:54:57.558Z,62.43
2022-09-06T14:55:57.568Z,61.74
2022-09-06T14:56:57.566Z,61.54
2022-09-06T14:57:57.540Z,61.94
2022-09-06T14:58:57.685Z,61.54
2022-09-06T14:59:57.568Z,61.44
2022-09-06T15:00:57.619Z,61.94
2022-09-06T15:01:57.579Z,60.92
2022-09-06T15:02:57.582Z,59.76
2022-09-06T15:03:57.477Z,60.55
2022-09-06T15:04:57.471Z,60.94
2022-09-06T15:05:57.552Z,58.77
2022-09-06T15:06:57.618Z,59.56
2022-09-06T15:07:57.527Z,58.87
2022-09-06T15:08:59.479Z,60.82
2022-09-06T15:09:57.541Z,59.73
2022-09-06T15:10:57.385Z,59.04
2022-09-06T15:11:57.449Z,59.17
2022-09-06T15:12:57.395Z,59.14
2022-09-06T15:13:57.377Z,59.66
2022-09-06T15:14:57.363Z,59.73
2022-09-06T15:15:57.647Z,60.62
2022-09-06T15:16:57.326Z,58.45
2022-09-06T15:17:57.331Z,56.46
2022-09-06T15:18:57.332Z,58.15
2022-09-06T15:19:57.343Z,57.65
2022-09-06T15:20:57.328Z,57.35
2022-09-06T15:21:57.331Z,56.67
2022-09-06T15:23:21.771Z,56.27
2022-09-06T15:23:58.291Z,57.95
2022-09-06T15:24:57.257Z,58.64
2022-09-06T15:25:57.234Z,57.85
2022-09-06T15:26:57.217Z,57.16
2022-09-06T15:27:57.239Z,58.05
2022-09-06T15:28:57.212Z,58.94
2022-09-06T15:29:57.208Z,57.95
2022-09-06T15:30:57.235Z,56.57
2022-09-06T15:31:57.166Z,57.85
2022-09-06T15:32:57.154Z,57.56
2022-09-06T15:33:57.164Z,58.94
2022-09-06T15:35:00.239Z,57.65
2022-09-06T15:35:58.141Z,57.95
2022-09-06T15:36:57.138Z,57.95
2022-09-06T15:37:57.116Z,57.65
2022-09-06T15:38:57.089Z,57.16
2022-09-06T15:39:57.219Z,56.46
2022-09-06T15:40:57.070Z,57.65
2022-09-06T15:41:57.056Z,56.17
2022-09-06T15:42:57.046Z,56.17
2022-09-06T15:43:57.063Z,57.85
2022-09-06T15:44:57.059Z,57.35
2022-09-06T15:45:57.083Z,56.57
2022-09-06T15:46:57.001Z,56.17
2022-09-06T15:47:56.991Z,56.46
2022-09-06T15:48:57.001Z,57.65
2022-09-06T15:49:56.966Z,56.37
2022-09-06T15:50:56.993Z,58.64
2022-09-06T15:51:56.963Z,57.65
2022-09-06T15:52:56.941Z,58.05
2022-09-06T15:53:56.933Z,57.75
2022-09-06T15:54:56.981Z,55.47
2022-09-06T15:55:56.913Z,56.37
2022-09-06T15:56:56.896Z,56.57
2022-09-06T15:57:56.911Z,59.33
2022-09-06T15:58:56.873Z,60.03
2022-09-06T15:59:56.863Z,55.21
2022-09-06T16:00:56.884Z,55.90
2022-09-06T16:01:56.907Z,57.65
2022-09-06T16:02:57.207Z,57.68
2022-09-06T16:03:56.848Z,55.70
2022-09-06T16:04:56.801Z,55.70
2022-09-06T16:06:57.828Z,60.94
2022-09-06T16:07:56.841Z,57.09
2022-09-06T16:08:56.761Z,58.60
2022-09-06T16:09:56.754Z,57.71
2022-09-06T16:10:56.759Z,57.78
2022-09-06T16:11:56.753Z,57.88
2022-09-06T16:12:56.746Z,59.66
2022-09-06T16:13:56.723Z,58.11
2022-09-06T16:14:56.722Z,57.51
2022-09-06T16:15:56.683Z,58.11
2022-09-06T16:16:56.790Z,57.71
2022-09-06T16:17:56.683Z,59.79
2022-09-06T16:18:56.684Z,59.69
2022-09-06T16:19:56.692Z,57.90
2022-09-06T16:20:56.634Z,59.19
2022-09-06T16:21:56.617Z,58.40
2022-09-06T16:22:56.618Z,58.01
2022-09-06T16:23:56.624Z,58.11
2022-09-06T16:24:56.610Z,59.79
2022-09-06T16:25:56.619Z,57.90
2022-09-06T16:26:56.577Z,57.90
2022-09-06T16:27:56.570Z,59.39
2022-09-06T16:28:56.550Z,58.92
2022-09-06T16:29:56.566Z,59.59
2022-09-06T16:30:56.579Z,59.30
2022-09-06T16:31:56.593Z,60.08
2022-09-06T16:32:56.529Z,61.07
2022-09-06T16:33:56.501Z,60.81
2022-09-06T16:34:56.513Z,57.54
2022-09-06T16:35:56.482Z,58.03
2022-09-06T16:36:56.485Z,59.42
2022-09-06T16:37:56.486Z,61.30
2022-09-06T16:38:56.442Z,59.12
2022-09-06T16:39:56.506Z,58.83
2022-09-06T16:40:56.421Z,58.13
2022-09-06T16:41:56.434Z,60.81
2022-09-06T16:42:56.404Z,59.65
2022-09-06T16:43:56.410Z,60.02
2022-09-06T16:44:56.379Z,57.76
2022-09-06T16:45:56.412Z,57.67
2022-09-06T16:46:56.376Z,60.05
2022-09-06T16:47:56.351Z,60.44
2022-09-06T16:48:56.333Z,60.24
2022-09-06T16:49:56.326Z,58.26
2022-09-06T16:50:56.324Z,59.15
2022-09-06T16:51:56.333Z,58.75
2022-09-06T16:52:56.284Z,57.97
2022-09-06T16:53:56.276Z,60.64
2022-09-06T16:54:56.295Z,61.33
2022-09-06T16:55:56.277Z,59.05
2022-09-06T16:56:56.263Z,59.75
2022-09-06T16:57:56.248Z,58.26
2022-09-06T16:58:56.237Z,56.87
2022-09-06T16:59:56.209Z,57.86
2022-09-06T17:00:56.281Z,58.65
2022-09-06T17:01:56.411Z,57.76
2022-09-06T17:02:56.258Z,59.15
2022-09-06T17:03:56.173Z,59.15
2022-09-06T17:04:56.163Z,58.06
2022-09-06T17:05:56.149Z,57.57
2022-09-06T17:06:56.148Z,59.45
2022-09-06T17:07:56.139Z,58.65
2022-09-06T17:08:56.162Z,57.97
2022-09-06T17:09:56.120Z,57.86
2022-09-06T17:10:56.107Z,56.87
2022-09-06T17:11:56.078Z,56.28
2022-09-06T17:12:56.075Z,56.28
2022-09-06T17:13:56.080Z,56.68
2022-09-06T17:14:56.080Z,56.97
2022-09-06T17:15:56.036Z,56.38
2022-09-06T17:16:56.091Z,57.86
2022-09-06T17:17:56.045Z,58.26
2022-09-06T17:18:56.040Z,57.86
2022-09-06T17:19:55.999Z,57.86
2022-09-06T17:20:55.987Z,57.89
2022-09-06T17:21:56.016Z,57.97
2022-09-06T17:22:55.975Z,58.95
2022-09-06T17:23:55.992Z,58.65
2022-09-06T17:24:55.945Z,58.16
2022-09-06T17:25:55.941Z,58.86
2022-09-06T17:26:55.919Z,58.65
2022-09-06T17:27:55.939Z,58.56
2022-09-06T17:28:55.903Z,57.99
2022-09-06T17:29:55.904Z,58.09
2022-09-06T17:30:55.926Z,58.69
2022-09-06T17:31:55.869Z,59.28
2022-09-06T17:32:55.871Z,58.19
2022-09-06T17:33:55.878Z,58.69
2022-09-06T17:34:55.871Z,58.19
2022-09-06T17:35:55.826Z,57.50
2022-09-06T17:36:55.820Z,57.79
2022-09-06T17:37:55.813Z,57.69
2022-09-06T17:38:55.800Z,57.72
2022-09-06T17:39:55.820Z,57.62
2022-09-06T17:40:55.800Z,57.79
2022-09-06T17:41:55.846Z,58.59
2022-09-06T17:42:55.749Z,59.21
2022-09-06T17:43:55.739Z,59.21
2022-09-06T17:44:55.755Z,58.91
2022-09-06T17:45:55.808Z,58.61
2022-09-06T17:47:12.443Z,58.51
2022-09-06T17:47:56.700Z,58.12
2022-09-06T17:48:55.734Z,58.51
2022-09-06T17:49:55.684Z,58.81